»·PEaware :: C-FVPV KBUR-L70

C-FVPV :: KBUR-L70

FLIGHT INFORMATION

Flight Status: Arrived
Operator: Privately registered:
Canada
More flights under this callsign
Pilot: Paul P. (15031)
Aircraft: CESSNA 172 SKYHAWK
(C172)
More flights by this aircraft type
Origin: KBUR Bob Hope-Burbank
United States
Destination: L70 Agua Dulce
United States
More flights between these airports :: More routes between these airports
Route: +
File this flight plan on PilotEdge
Remarks:
Altitude:
(Current/Filed)
0ft
Speed:
(Current/Filed)
0kts
Departed: 18-Feb-18 04:49 PM
Arrived: 18-Feb-18 05:08 PM
Distance/Time
Traveled:
9nm/0:19
Distance/Time
To Go:
Arrived

Flight Plot

Page will automatically refresh every two minutes.


Map Options




Map Legend


Flown Route
Filed Route
Departure Airport
Arrival Airport
Navaid (VOR, NDB)
Fix

Horizontal Profiles

Position Reports

Time Latitude Longitude Heading Altitude Ground
Speed
18-Feb-18 16:39 34.195756 -118.360057 180 724ft 0kts
18-Feb-18 16:40 34.195752 -118.360057 180 724ft 0kts
18-Feb-18 16:41 34.196027 -118.359788 348 724ft 5kts
18-Feb-18 16:42 34.196663 -118.362514 269 724ft 15kts
18-Feb-18 16:43 34.196697 -118.363904 270 724ft 0kts
18-Feb-18 16:44 34.196764 -118.364450 314 724ft 0kts
18-Feb-18 16:45 34.198973 -118.363687 89 724ft 14kts
18-Feb-18 16:46 34.198954 -118.358309 89 724ft 11kts
18-Feb-18 16:47 34.202236 -118.358681 345 724ft 18kts
18-Feb-18 16:48 34.207208 -118.360053 347 724ft 16kts
18-Feb-18 16:49 34.211717 -118.361341 328 724ft 6kts
18-Feb-18 16:50 34.211944 -118.361440 36 724ft 0kts
18-Feb-18 16:51 34.211947 -118.361437 36 724ft 0kts
18-Feb-18 16:52 34.211950 -118.361435 36 724ft 0kts
18-Feb-18 16:53 34.211953 -118.361432 36 724ft 0kts
18-Feb-18 16:54 34.211996 -118.361040 83 724ft 2kts
18-Feb-18 16:55 34.211998 -118.361021 82 724ft 0kts
18-Feb-18 16:56 34.209399 -118.359635 163 729ft 55kts
18-Feb-18 16:57 34.192789 -118.350589 121 1513ft 77kts
18-Feb-18 16:58 34.203915 -118.334788 330 2357ft 85kts
18-Feb-18 16:59 34.224045 -118.352428 315 3026ft 113kts
18-Feb-18 17:00 34.246325 -118.377218 314 3027ft 105kts
18-Feb-18 17:01 34.268139 -118.401444 313 3033ft 106kts
18-Feb-18 17:02 34.288948 -118.427952 311 3008ft 111kts
18-Feb-18 17:03 34.309158 -118.454692 309 3006ft 106kts
18-Feb-18 17:04 34.328523 -118.481012 308 3039ft 100kts
18-Feb-18 17:05 34.348954 -118.493933 351 4109ft 84kts
18-Feb-18 17:06 34.375312 -118.489590 31 4535ft 120kts
18-Feb-18 17:07 34.394706 -118.456937 54 5114ft 93kts
18-Feb-18 17:08 34.409558 -118.425677 60 5517ft 126kts
18-Feb-18 17:09 34.426219 -118.390638 54 5531ft 112kts
18-Feb-18 17:10 34.444065 -118.360010 43 5159ft 116kts
18-Feb-18 17:11 34.471026 -118.337913 22 4327ft 117kts
18-Feb-18 17:12 34.495407 -118.315696 57 3583ft 101kts
18-Feb-18 17:13 34.511271 -118.290067 342 3445ft 82kts
18-Feb-18 17:14 34.509464 -118.303627 228 2813ft 55kts
18-Feb-18 17:15 34.503872 -118.312536 261 2605ft 9kts
18-Feb-18 17:16 34.506341 -118.309510 53 2605ft 19kts
18-Feb-18 17:17 34.507327 -118.307025 198 2605ft 3kts
18-Feb-18 17:18 34.502934 -118.313918 228 2786ft 51kts
18-Feb-18 17:19 34.492527 -118.330086 231 3390ft 62kts
18-Feb-18 17:20 34.480540 -118.348396 231 3969ft 73kts
18-Feb-18 17:21 34.466995 -118.367870 228 4786ft 77kts
18-Feb-18 17:22 34.451472 -118.385503 223 5480ft 75kts
18-Feb-18 17:23 34.434398 -118.400929 219 6146ft 76kts
18-Feb-18 17:24 34.416227 -118.413201 208 7030ft 79kts
18-Feb-18 17:25 34.394003 -118.418919 198 7590ft 83kts
18-Feb-18 17:26 34.371979 -118.424164 209 8031ft 78kts
18-Feb-18 17:27 34.352482 -118.435823 219 8656ft 81kts
18-Feb-18 17:28 34.334498 -118.451011 232 9115ft 75kts
18-Feb-18 17:29 34.320327 -118.468671 238 9415ft 73kts
18-Feb-18 17:30 34.305767 -118.487664 238 9562ft 81kts

Navigation Log

Ident Type
Flight plan parsing failed, navigation log unavailable